createdAt,value
2023-03-31T00:00:13.424Z,3.03
2023-03-31T00:05:18.236Z,2.63
2023-03-31T00:10:20.218Z,2.20
2023-03-31T00:15:22.014Z,2.45
2023-03-31T00:20:23.780Z,2.78
2023-03-31T00:25:25.801Z,2.90
2023-03-31T00:30:27.603Z,2.63
2023-03-31T00:35:29.408Z,2.00
2023-03-31T00:40:31.564Z,2.25
2023-03-31T00:45:33.369Z,3.22
2023-03-31T00:50:43.330Z,3.25
2023-03-31T00:56:11.736Z,1.87
2023-03-31T01:01:19.338Z,2.22
2023-03-31T01:06:21.209Z,1.80
2023-03-31T01:11:27.566Z,1.88
2023-03-31T01:16:29.620Z,2.60
2023-03-31T01:22:09.517Z,2.15
2023-03-31T01:27:54.212Z,2.27
2023-03-31T01:33:02.559Z,3.22
2023-03-31T01:38:34.657Z,2.35
2023-03-31T01:43:53.974Z,3.33
2023-03-31T01:49:01.684Z,2.00
2023-03-31T01:54:12.085Z,2.28
2023-03-31T01:59:29.714Z,2.20
2023-03-31T02:04:42.395Z,2.17
2023-03-31T02:09:49.756Z,1.98
2023-03-31T02:14:54.553Z,1.67
2023-03-31T02:20:00.156Z,1.98
2023-03-31T02:25:03.267Z,2.15
2023-03-31T02:30:07.151Z,1.60
2023-03-31T02:35:16.486Z,1.15
2023-03-31T02:40:21.960Z,1.27
2023-03-31T02:45:53.019Z,1.17
2023-03-31T02:51:01.848Z,1.35
2023-03-31T02:56:11.590Z,1.38
2023-03-31T03:01:27.415Z,1.77
2023-03-31T03:06:57.563Z,1.20
2023-03-31T03:12:25.588Z,1.30
2023-03-31T03:17:32.275Z,1.55
2023-03-31T03:22:34.511Z,1.20
2023-03-31T03:27:37.154Z,2.13
2023-03-31T03:32:39.328Z,1.88
2023-03-31T03:37:41.240Z,1.38
2023-03-31T03:42:43.025Z,1.40
2023-03-31T03:47:44.921Z,1.65
2023-03-31T03:52:46.903Z,1.88
2023-03-31T03:57:48.816Z,1.50
2023-03-31T04:02:54.107Z,1.48
2023-03-31T04:07:56.059Z,1.70
2023-03-31T04:12:57.953Z,1.35
2023-03-31T04:17:59.809Z,2.00
2023-03-31T04:23:02.933Z,1.10
2023-03-31T04:28:07.080Z,1.77
2023-03-31T04:33:08.881Z,1.67
2023-03-31T04:38:10.695Z,1.40
2023-03-31T04:43:12.636Z,1.63
2023-03-31T04:48:14.370Z,1.65
2023-03-31T04:53:16.175Z,2.33
2023-03-31T04:58:18.645Z,1.63
2023-03-31T05:03:21.741Z,1.55
2023-03-31T05:08:23.783Z,2.30
2023-03-31T05:13:25.617Z,1.88
2023-03-31T05:18:27.415Z,1.45
2023-03-31T05:23:30.170Z,2.45
2023-03-31T05:28:32.610Z,1.60
2023-03-31T05:33:34.869Z,1.48
2023-03-31T05:38:36.740Z,1.80
2023-03-31T05:43:39.493Z,2.72
2023-03-31T05:48:41.732Z,3.17
2023-03-31T05:53:44.277Z,2.33
2023-03-31T05:58:46.649Z,2.22
2023-03-31T06:03:49.393Z,3.25
2023-03-31T06:08:51.571Z,2.38
2023-03-31T06:13:53.332Z,1.95
2023-03-31T06:18:55.868Z,2.35
2023-03-31T06:23:58.363Z,1.98
2023-03-31T06:29:00.396Z,2.15
2023-03-31T06:34:02.147Z,2.92
2023-03-31T06:39:04.257Z,3.15
2023-03-31T06:44:06.107Z,2.55
2023-03-31T06:49:07.921Z,2.13
2023-03-31T06:54:09.915Z,3.05
2023-03-31T06:59:11.668Z,2.78
2023-03-31T07:04:13.504Z,2.30
2023-03-31T07:09:15.631Z,2.85
2023-03-31T07:14:17.389Z,2.75
2023-03-31T07:19:19.653Z,2.63
2023-03-31T07:24:21.662Z,2.47
2023-03-31T07:29:23.455Z,3.28
2023-03-31T07:34:27.423Z,2.50
2023-03-31T07:39:29.427Z,2.70
2023-03-31T07:44:33.958Z,3.58
2023-03-31T07:49:36.798Z,3.20
2023-03-31T07:54:38.700Z,2.33
2023-03-31T07:59:40.683Z,2.72
2023-03-31T08:04:42.982Z,2.80
2023-03-31T08:09:46.730Z,3.22
2023-03-31T08:14:49.064Z,2.92
2023-03-31T08:19:52.230Z,3.10
2023-03-31T08:24:54.062Z,3.00
2023-03-31T08:29:55.806Z,3.30
2023-03-31T08:34:57.925Z,3.10
2023-03-31T08:40:00.397Z,2.95
2023-03-31T08:45:24.463Z,3.17
2023-03-31T08:50:31.011Z,2.83
2023-03-31T08:55:52.026Z,2.17
2023-03-31T09:01:08.720Z,3.33
2023-03-31T09:06:17.479Z,2.20
2023-03-31T09:11:48.755Z,2.40
2023-03-31T09:17:24.205Z,1.98
2023-03-31T09:22:31.488Z,3.25
2023-03-31T09:27:37.511Z,3.10
2023-03-31T09:32:40.568Z,2.08
2023-03-31T09:37:42.566Z,2.65
2023-03-31T09:42:46.060Z,2.22
2023-03-31T09:47:52.129Z,2.63
2023-03-31T09:52:58.810Z,2.75
2023-03-31T09:58:02.177Z,2.97
2023-03-31T10:03:08.654Z,4.43
2023-03-31T10:08:24.772Z,3.17
2023-03-31T10:13:29.522Z,3.08
2023-03-31T10:18:40.424Z,2.28
2023-03-31T10:23:46.974Z,2.60
2023-03-31T10:28:52.503Z,2.92
2023-03-31T10:33:55.266Z,2.90
2023-03-31T10:38:57.852Z,2.55
2023-03-31T10:44:02.626Z,2.58
2023-03-31T10:49:15.902Z,2.88
2023-03-31T10:54:18.488Z,2.47
2023-03-31T10:59:28.522Z,2.22
2023-03-31T11:04:43.430Z,2.45
2023-03-31T11:10:12.637Z,2.30
2023-03-31T11:15:53.046Z,3.53
2023-03-31T11:21:24.587Z,2.50
2023-03-31T11:26:44.967Z,2.80
2023-03-31T11:32:22.933Z,3.17
2023-03-31T11:37:41.710Z,2.53
2023-03-31T11:42:57.550Z,2.75
2023-03-31T11:48:10.836Z,3.30
2023-03-31T11:53:30.408Z,2.10
2023-03-31T11:58:56.253Z,1.92
2023-03-31T12:04:19.296Z,2.47
2023-03-31T12:09:39.897Z,1.95
2023-03-31T12:14:57.280Z,2.65
2023-03-31T12:20:06.913Z,1.95
2023-03-31T12:25:16.610Z,2.75
2023-03-31T12:30:31.305Z,2.35
2023-03-31T12:35:54.167Z,3.10
2023-03-31T12:41:28.891Z,3.25
2023-03-31T12:46:55.551Z,2.10
2023-03-31T12:52:09.117Z,2.10
2023-03-31T12:57:11.370Z,1.67
2023-03-31T13:02:16.751Z,1.13
2023-03-31T13:07:29.380Z,2.25
2023-03-31T13:12:33.303Z,1.98
2023-03-31T13:17:38.911Z,1.27
2023-03-31T13:22:50.434Z,1.80
2023-03-31T13:27:53.975Z,0.73
2023-03-31T13:33:18.153Z,0.80
2023-03-31T13:38:41.502Z,1.23
2023-03-31T13:43:43.850Z,0.82
2023-03-31T13:48:51.821Z,1.10
2023-03-31T13:54:14.304Z,0.90
2023-03-31T13:59:41.491Z,1.23
2023-03-31T14:05:33.860Z,1.00
2023-03-31T14:10:38.296Z,2.08
2023-03-31T14:15:51.005Z,1.55
2023-03-31T14:21:17.853Z,1.58
2023-03-31T14:26:56.430Z,0.80
2023-03-31T14:32:15.019Z,0.60
2023-03-31T14:37:21.108Z,0.75
2023-03-31T14:42:51.362Z,0.73
2023-03-31T14:48:13.846Z,0.73
2023-03-31T14:53:24.713Z,0.40
2023-03-31T14:58:39.163Z,0.50
2023-03-31T15:03:42.588Z,0.50
2023-03-31T15:08:45.609Z,0.47
2023-03-31T15:14:03.747Z,0.70
2023-03-31T15:19:33.189Z,0.63
2023-03-31T15:24:34.973Z,0.93
2023-03-31T15:29:47.727Z,0.60
2023-03-31T15:34:51.744Z,0.50
2023-03-31T15:39:58.030Z,0.90
2023-03-31T15:45:46.301Z,0.95
2023-03-31T15:50:49.090Z,0.88
2023-03-31T15:55:55.918Z,0.80
2023-03-31T16:01:05.094Z,0.80
2023-03-31T16:06:19.461Z,0.93
2023-03-31T16:11:33.477Z,0.98
2023-03-31T16:16:36.181Z,1.45
2023-03-31T16:21:44.627Z,1.15
2023-03-31T16:26:47.669Z,1.30
2023-03-31T16:31:49.933Z,1.52
2023-03-31T16:36:51.816Z,1.60
2023-03-31T16:41:53.806Z,1.13
2023-03-31T16:46:56.102Z,1.00
2023-03-31T16:51:58.125Z,1.88
2023-03-31T16:57:00.238Z,1.75
2023-03-31T17:02:02.206Z,1.08
2023-03-31T17:07:04.220Z,1.10
2023-03-31T17:12:06.154Z,1.08
2023-03-31T17:17:07.950Z,1.00
2023-03-31T17:22:09.755Z,1.30
2023-03-31T17:27:11.634Z,1.30
2023-03-31T17:32:14.916Z,1.30
2023-03-31T17:37:17.522Z,1.35
2023-03-31T17:42:20.290Z,1.60
2023-03-31T17:47:22.372Z,1.45
2023-03-31T17:52:25.041Z,1.65
2023-03-31T17:57:27.518Z,1.40
2023-03-31T18:02:29.660Z,1.90
2023-03-31T18:07:31.520Z,2.20
2023-03-31T18:12:34.414Z,1.40
2023-03-31T18:17:36.570Z,1.95
2023-03-31T18:22:38.464Z,2.83
2023-03-31T18:27:40.247Z,2.58
2023-03-31T18:32:42.272Z,1.80
2023-03-31T18:37:44.225Z,2.17
2023-03-31T18:42:46.185Z,1.83
2023-03-31T18:47:48.186Z,2.70
2023-03-31T18:52:54.502Z,1.80
2023-03-31T18:57:56.832Z,2.25
2023-03-31T19:02:58.886Z,1.85
2023-03-31T19:08:01.531Z,3.33
2023-03-31T19:13:03.997Z,1.80
2023-03-31T19:18:06.141Z,2.25
2023-03-31T19:23:08.110Z,2.85
2023-03-31T19:28:14.916Z,1.98
2023-03-31T19:33:17.686Z,2.40
2023-03-31T19:38:19.590Z,2.28
2023-03-31T19:43:24.232Z,2.45
2023-03-31T19:48:28.452Z,2.00
2023-03-31T19:53:31.456Z,1.83
2023-03-31T19:58:35.913Z,2.33
2023-03-31T20:03:37.873Z,2.08
2023-03-31T20:08:42.919Z,2.75
2023-03-31T20:13:45.765Z,2.28
2023-03-31T20:19:04.319Z,2.65
2023-03-31T20:24:07.125Z,2.63
2023-03-31T20:29:10.178Z,2.15
2023-03-31T20:34:16.795Z,3.05
2023-03-31T20:39:19.978Z,2.03
2023-03-31T20:44:21.963Z,1.48
2023-03-31T20:49:23.823Z,1.45
2023-03-31T20:54:26.238Z,1.35
2023-03-31T20:59:28.291Z,1.17
2023-03-31T21:04:30.496Z,1.48
2023-03-31T21:09:33.167Z,1.55
2023-03-31T21:14:35.056Z,1.17
2023-03-31T21:19:36.826Z,1.33
2023-03-31T21:24:38.778Z,1.10
2023-03-31T21:29:40.751Z,2.28
2023-03-31T21:34:43.916Z,1.67
2023-03-31T21:39:46.564Z,1.67
2023-03-31T21:44:48.642Z,1.52
2023-03-31T21:49:50.386Z,1.38
2023-03-31T21:54:52.496Z,1.40
2023-03-31T21:59:54.315Z,1.27
2023-03-31T22:04:56.326Z,1.67
2023-03-31T22:09:58.374Z,1.42
2023-03-31T22:15:00.341Z,1.88
2023-03-31T22:20:02.302Z,2.22
2023-03-31T22:25:04.852Z,2.42
2023-03-31T22:30:07.557Z,1.50
2023-03-31T22:35:09.816Z,1.45
2023-03-31T22:40:11.813Z,2.58
2023-03-31T22:45:13.581Z,1.55
2023-03-31T22:50:15.632Z,1.35
2023-03-31T22:55:17.665Z,1.75
2023-03-31T23:00:19.755Z,1.50
2023-03-31T23:05:24.472Z,1.48
2023-03-31T23:10:26.309Z,1.10
2023-03-31T23:15:28.116Z,1.45
2023-03-31T23:20:29.892Z,1.88
2023-03-31T23:25:33.058Z,1.60
2023-03-31T23:30:34.989Z,1.30
2023-03-31T23:35:37.970Z,1.52
2023-03-31T23:40:40.343Z,1.20
2023-03-31T23:45:42.835Z,1.35
2023-03-31T23:50:45.228Z,1.10
2023-03-31T23:56:07.543Z,1.92
